Time;durP1;ratioP1;P1;durP2;ratioP2;P2;SDS_P1;SDS_P2;PMS_P1;PMS_P2;Temp;Humidity;BMP_temperature;BMP_pressure;BME280_temperature;BME280_humidity;BME280_pressure;Samples;Min_cycle;Max_cycle;Signal;HPM_P1;HPM_P2
2022/12/21 00:01:45;;;;;;;3.13;2.17;;;;;;;;;;5051602;28;20057;-89
2022/12/21 00:04:16;;;;;;;1.98;1.60;;;;;;;;;;5056383;28;20049;-87
2022/12/21 00:06:44;;;;;;;6.03;2.72;;;;;;;;;;5043795;28;20073;-87
2022/12/21 00:09:14;;;;;;;1.60;1.50;;;;;;;;;;5054535;28;20390;-87
2022/12/21 00:11:42;;;;;;;1.80;1.70;;;;;;;;;;5059861;28;20045;-88
2022/12/21 00:14:11;;;;;;;6.13;1.52;;;;;;;;;;5052924;28;20167;-88
2022/12/21 00:16:41;;;;;;;4.70;2.83;;;;;;;;;;5053368;28;20044;-88
2022/12/21 00:19:12;;;;;;;7.32;3.47;;;;;;;;;;5050502;28;20041;-88
2022/12/21 00:21:41;;;;;;;3.15;1.48;;;;;;;;;;5052323;28;20045;-87
2022/12/21 00:24:09;;;;;;;2.72;1.50;;;;;;;;;;5051717;28;20055;-87
2022/12/21 00:26:38;;;;;;;1.83;1.58;;;;;;;;;;5056144;28;20067;-88
2022/12/21 00:29:07;;;;;;;3.65;1.77;;;;;;;;;;5066316;28;20040;-88
2022/12/21 00:31:36;;;;;;;1.60;1.50;;;;;;;;;;5060705;28;20077;-87
2022/12/21 00:34:06;;;;;;;2.92;1.23;;;;;;;;;;5058306;28;20091;-89
2022/12/21 00:36:36;;;;;;;7.07;1.73;;;;;;;;;;5045870;28;20088;-87
2022/12/21 00:39:04;;;;;;;2.90;1.88;;;;;;;;;;5061045;28;20045;-87
2022/12/21 00:41:33;;;;;;;4.93;3.15;;;;;;;;;;5040755;28;20409;-89
2022/12/21 00:44:01;;;;;;;2.28;2.10;;;;;;;;;;5054085;28;20207;-87
2022/12/21 00:46:30;;;;;;;2.72;1.58;;;;;;;;;;5059664;28;20083;-87
2022/12/21 00:48:59;;;;;;;2.08;1.88;;;;;;;;;;5065859;28;20052;-89
2022/12/21 00:51:29;;;;;;;2.42;2.25;;;;;;;;;;5068635;28;20079;-89
2022/12/21 00:53:59;;;;;;;2.78;2.22;;;;;;;;;;5055907;28;20404;-88
2022/12/21 00:56:28;;;;;;;1.20;1.10;;;;;;;;;;5062762;28;20410;-87
2022/12/21 00:58:56;;;;;;;1.38;1.27;;;;;;;;;;5057670;28;20048;-89
2022/12/21 01:01:25;;;;;;;2.35;1.58;;;;;;;;;;5071086;28;20078;-89
2022/12/21 01:03:54;;;;;;;4.95;2.17;;;;;;;;;;5052199;28;20152;-88
2022/12/21 01:06:24;;;;;;;4.82;3.42;;;;;;;;;;5046580;28;20064;-89
2022/12/21 01:08:54;;;;;;;7.00;2.97;;;;;;;;;;5058913;28;20063;-89
2022/12/21 01:11:23;;;;;;;4.85;2.42;;;;;;;;;;5059283;28;20365;-88
2022/12/21 01:13:53;;;;;;;2.13;1.98;;;;;;;;;;5060584;28;20059;-90
2022/12/21 01:16:22;;;;;;;3.40;2.47;;;;;;;;;;5051112;28;20048;-87
2022/12/21 01:18:51;;;;;;;1.48;1.40;;;;;;;;;;5058734;28;20056;-87
2022/12/21 01:21:21;;;;;;;2.00;1.85;;;;;;;;;;5038193;28;20038;-89
2022/12/21 01:23:49;;;;;;;2.90;1.63;;;;;;;;;;5063837;28;20060;-88
2022/12/21 01:26:19;;;;;;;3.90;2.92;;;;;;;;;;5053189;28;20053;-89
2022/12/21 01:28:47;;;;;;;3.72;2.60;;;;;;;;;;5052302;28;20056;-88
2022/12/21 01:31:16;;;;;;;2.65;2.05;;;;;;;;;;5057721;28;20169;-90
2022/12/21 01:33:44;;;;;;;5.70;2.17;;;;;;;;;;5066484;28;20049;-88
2022/12/21 01:36:14;;;;;;;2.78;2.50;;;;;;;;;;5064940;28;20045;-89
2022/12/21 01:38:43;;;;;;;1.17;1.10;;;;;;;;;;5059420;28;20063;-88
2022/12/21 01:41:14;;;;;;;3.90;2.08;;;;;;;;;;5048514;28;20068;-90
2022/12/21 01:43:45;;;;;;;3.42;2.53;;;;;;;;;;5053200;28;20083;-87
2022/12/21 01:46:17;;;;;;;7.57;2.88;;;;;;;;;;5051198;28;20102;-88
2022/12/21 01:48:47;;;;;;;8.50;1.80;;;;;;;;;;5050117;28;20056;-87
2022/12/21 01:51:16;;;;;;;1.42;1.33;;;;;;;;;;5051287;28;20148;-89
2022/12/21 01:53:47;;;;;;;1.50;1.05;;;;;;;;;;5067343;28;20522;-88
2022/12/21 01:56:17;;;;;;;3.22;1.98;;;;;;;;;;5050679;28;20056;-89
2022/12/21 01:58:47;;;;;;;1.98;1.67;;;;;;;;;;5063533;28;20485;-88
2022/12/21 02:01:16;;;;;;;5.60;2.55;;;;;;;;;;5051063;28;20052;-89
2022/12/21 02:03:48;;;;;;;4.18;3.03;;;;;;;;;;5060007;28;20053;-89
2022/12/21 02:06:19;;;;;;;1.73;1.63;;;;;;;;;;5041527;28;20052;-88
2022/12/21 02:08:48;;;;;;;3.70;2.70;;;;;;;;;;5052751;28;20131;-88
2022/12/21 02:11:17;;;;;;;1.60;1.50;;;;;;;;;;5049143;28;20056;-88
2022/12/21 02:13:45;;;;;;;2.60;2.40;;;;;;;;;;5049019;28;20055;-88
2022/12/21 02:16:21;;;;;;;1.48;1.38;;;;;;;;;;5050377;28;20153;-86
2022/12/21 02:19:00;;;;;;;1.80;1.60;;;;;;;;;;5058437;28;20120;-87
2022/12/21 02:21:30;;;;;;;2.08;1.80;;;;;;;;;;5052165;28;20072;-87
2022/12/21 02:24:27;;;;;;;2.25;1.90;;;;;;;;;;5054758;28;20082;-87
2022/12/21 02:27:06;;;;;;;5.60;2.20;;;;;;;;;;5040731;28;20103;-88
2022/12/21 02:29:54;;;;;;;1.90;1.35;;;;;;;;;;5047094;28;20122;-86
2022/12/21 02:32:28;;;;;;;4.18;2.42;;;;;;;;;;5059076;28;20040;-87
2022/12/21 02:34:57;;;;;;;;;;;;;;;;;;5053695;28;20128;-88
2022/12/21 02:37:27;;;;;;;0.63;0.43;;;;;;;;;;5051889;28;20387;-87
2022/12/21 02:40:00;;;;;;;2.88;1.95;;;;;;;;;;5045258;28;20064;-87
2022/12/21 02:45:20;;;;;;;1.67;1.58;;;;;;;;;;5062037;28;20114;-87
2022/12/21 02:47:52;;;;;;;3.10;1.35;;;;;;;;;;5058284;28;20087;-88
2022/12/21 02:50:24;;;;;;;2.05;1.38;;;;;;;;;;5043924;28;20080;-88
2022/12/21 02:52:55;;;;;;;1.90;1.40;;;;;;;;;;5057179;28;20049;-89
2022/12/21 02:55:26;;;;;;;1.70;1.00;;;;;;;;;;5060967;28;20087;-88
2022/12/21 02:58:12;;;;;;;1.50;1.17;;;;;;;;;;5054396;28;20533;-87
2022/12/21 03:00:45;;;;;;;2.35;2.20;;;;;;;;;;5052720;28;20458;-89
2022/12/21 03:06:14;;;;;;;1.55;1.45;;;;;;;;;;5047635;28;20111;-88
2022/12/21 03:08:47;;;;;;;1.70;1.60;;;;;;;;;;5062972;28;20052;-88
2022/12/21 03:11:16;;;;;;;2.97;2.58;;;;;;;;;;5068111;28;20527;-88
2022/12/21 03:13:48;;;;;;;1.45;1.35;;;;;;;;;;5045490;28;20045;-89
2022/12/21 03:16:19;;;;;;;1.60;1.50;;;;;;;;;;5057938;28;20055;-87
2022/12/21 03:18:54;;;;;;;2.28;1.40;;;;;;;;;;5064909;28;20048;-87
2022/12/21 03:21:25;;;;;;;1.60;1.50;;;;;;;;;;5057021;28;20049;-89
2022/12/21 03:23:58;;;;;;;1.88;1.73;;;;;;;;;;5054949;28;20488;-88
2022/12/21 03:26:30;;;;;;;2.75;2.05;;;;;;;;;;5051583;28;20057;-89
2022/12/21 03:28:59;;;;;;;3.70;1.73;;;;;;;;;;5054374;28;20053;-91
2022/12/21 03:31:29;;;;;;;2.67;1.95;;;;;;;;;;5063351;28;20053;-88
2022/12/21 03:34:02;;;;;;;4.03;1.38;;;;;;;;;;5058803;28;20051;-88
2022/12/21 03:36:32;;;;;;;0.93;0.77;;;;;;;;;;5053075;28;20056;-87
2022/12/21 03:39:04;;;;;;;3.70;1.27;;;;;;;;;;5048134;28;20048;-87
2022/12/21 03:41:34;;;;;;;2.80;1.83;;;;;;;;;;5065565;28;20051;-87
2022/12/21 03:44:04;;;;;;;4.57;2.13;;;;;;;;;;5053288;28;20064;-87
2022/12/21 03:46:34;;;;;;;3.60;2.17;;;;;;;;;;5046779;28;20049;-88
2022/12/21 03:49:06;;;;;;;1.80;1.52;;;;;;;;;;5055693;28;20048;-88
2022/12/21 03:51:37;;;;;;;2.10;1.90;;;;;;;;;;5057013;28;20052;-87
2022/12/21 03:54:10;;;;;;;1.00;0.95;;;;;;;;;;5054789;28;20059;-87
2022/12/21 03:56:40;;;;;;;1.73;1.25;;;;;;;;;;5053666;28;20111;-88
2022/12/21 03:59:10;;;;;;;1.00;0.88;;;;;;;;;;5049230;28;20135;-87
2022/12/21 04:01:41;;;;;;;1.60;1.48;;;;;;;;;;5050914;28;20050;-88
2022/12/21 04:04:15;;;;;;;2.00;1.58;;;;;;;;;;5054345;28;20110;-87
2022/12/21 04:06:45;;;;;;;3.22;1.05;;;;;;;;;;5047949;28;20045;-89
2022/12/21 04:09:14;;;;;;;1.98;1.42;;;;;;;;;;5057810;28;20041;-88
2022/12/21 04:14:30;;;;;;;2.40;1.30;;;;;;;;;;5066950;28;20104;-89
2022/12/21 04:16:58;;;;;;;2.55;1.27;;;;;;;;;;5054242;28;20045;-88
2022/12/21 04:28:06;;;;;;;1.00;1.00;;;;;;;;;;5058668;28;20075;-88
2022/12/21 04:28:08;;;;;;;1.42;1.33;;;;;;;;;;5044817;28;20045;-88
2022/12/21 04:30:57;;;;;;;1.02;0.93;;;;;;;;;;5033829;28;20045;-89
2022/12/21 04:33:26;;;;;;;2.97;1.98;;;;;;;;;;5053134;28;20045;-89
2022/12/21 04:38:43;;;;;;;1.60;1.45;;;;;;;;;;5052349;28;20512;-87
2022/12/21 04:41:12;;;;;;;0.52;0.45;;;;;;;;;;5049282;28;20072;-88
2022/12/21 04:43:41;;;;;;;1.50;1.40;;;;;;;;;;5059834;28;20056;-88
2022/12/21 04:46:11;;;;;;;1.85;1.23;;;;;;;;;;5050741;28;20046;-91
2022/12/21 04:48:40;;;;;;;2.00;0.88;;;;;;;;;;5064471;28;20485;-89
2022/12/21 04:51:11;;;;;;;1.80;0.95;;;;;;;;;;5052906;28;20061;-87
2022/12/21 04:53:39;;;;;;;2.10;1.50;;;;;;;;;;5047653;28;20060;-87
2022/12/21 04:56:08;;;;;;;2.42;1.63;;;;;;;;;;5055338;28;20064;-88
2022/12/21 04:58:37;;;;;;;4.68;1.73;;;;;;;;;;5042966;28;20124;-89
2022/12/21 05:01:09;;;;;;;0.47;0.47;;;;;;;;;;5055859;28;20427;-88
2022/12/21 05:03:38;;;;;;;1.55;1.45;;;;;;;;;;5046724;28;20073;-89
2022/12/21 05:06:07;;;;;;;6.60;1.50;;;;;;;;;;5044643;28;20476;-88
2022/12/21 05:08:38;;;;;;;1.80;1.55;;;;;;;;;;5056371;28;20060;-88
2022/12/21 05:11:10;;;;;;;0.60;0.60;;;;;;;;;;5065166;28;20041;-89
2022/12/21 05:13:38;;;;;;;2.05;1.85;;;;;;;;;;5044241;28;20127;-89
2022/12/21 05:16:08;;;;;;;1.38;1.25;;;;;;;;;;5047184;28;20694;-88
2022/12/21 05:18:36;;;;;;;0.82;0.82;;;;;;;;;;5040891;28;20548;-88
2022/12/21 05:21:05;;;;;;;2.90;1.42;;;;;;;;;;5050250;28;20087;-88
2022/12/21 05:23:34;;;;;;;0.68;0.68;;;;;;;;;;5053612;28;20099;-88
2022/12/21 05:26:04;;;;;;;1.05;1.05;;;;;;;;;;5047616;28;20033;-89
2022/12/21 05:28:42;;;;;;;1.52;1.42;;;;;;;;;;5061877;28;20104;-88
2022/12/21 05:31:11;;;;;;;1.90;1.58;;;;;;;;;;5042066;28;20059;-90
2022/12/21 05:33:40;;;;;;;1.65;0.98;;;;;;;;;;5055882;28;20051;-89
2022/12/21 05:36:09;;;;;;;2.08;1.67;;;;;;;;;;5046676;28;20052;-89
2022/12/21 05:38:38;;;;;;;1.25;1.15;;;;;;;;;;5050823;28;20480;-90
2022/12/21 05:41:08;;;;;;;0.50;0.50;;;;;;;;;;5051886;28;20044;-89
2022/12/21 05:43:37;;;;;;;0.73;0.50;;;;;;;;;;5050059;28;20663;-88
2022/12/21 05:46:06;;;;;;;3.25;1.75;;;;;;;;;;5049835;28;20048;-89
2022/12/21 05:48:35;;;;;;;1.48;1.42;;;;;;;;;;5051059;28;20049;-89
2022/12/21 05:51:06;;;;;;;0.80;0.80;;;;;;;;;;5048311;28;20044;-90
2022/12/21 05:53:35;;;;;;;0.52;0.52;;;;;;;;;;5045891;28;20044;-89
2022/12/21 05:56:03;;;;;;;0.80;0.80;;;;;;;;;;5046899;28;20079;-88
2022/12/21 05:58:34;;;;;;;1.80;1.25;;;;;;;;;;5036892;28;20059;-91
2022/12/21 06:01:03;;;;;;;6.47;1.05;;;;;;;;;;5046663;28;20045;-89
2022/12/21 06:03:31;;;;;;;1.70;0.57;;;;;;;;;;5051961;28;20049;-89
2022/12/21 06:06:03;;;;;;;0.90;0.82;;;;;;;;;;5044769;28;20056;-89
2022/12/21 06:08:32;;;;;;;1.73;0.65;;;;;;;;;;5041135;28;20778;-88
2022/12/21 06:11:04;;;;;;;0.68;0.68;;;;;;;;;;5049258;28;20106;-87
2022/12/21 06:13:37;;;;;;;1.35;1.25;;;;;;;;;;5048380;28;20405;-89
2022/12/21 06:16:07;;;;;;;0.55;0.55;;;;;;;;;;5048869;28;20049;-89
2022/12/21 06:18:39;;;;;;;1.40;0.80;;;;;;;;;;5042600;28;20453;-90
2022/12/21 06:21:10;;;;;;;1.35;1.25;;;;;;;;;;5041192;28;20660;-92
2022/12/21 06:23:38;;;;;;;0.60;0.50;;;;;;;;;;5040678;28;20052;-89
2022/12/21 06:26:08;;;;;;;0.55;0.52;;;;;;;;;;5056769;28;20055;-89
2022/12/21 06:28:38;;;;;;;0.70;0.70;;;;;;;;;;5055436;28;20045;-90
2022/12/21 06:31:07;;;;;;;0.95;0.93;;;;;;;;;;5037425;28;20083;-90
2022/12/21 06:33:36;;;;;;;2.33;0.45;;;;;;;;;;5052720;28;20362;-89
2022/12/21 06:36:06;;;;;;;0.95;0.52;;;;;;;;;;5033983;28;20049;-89
2022/12/21 06:38:35;;;;;;;0.38;0.38;;;;;;;;;;5040723;28;20412;-89
2022/12/21 06:41:04;;;;;;;0.95;0.95;;;;;;;;;;5038383;28;20045;-89
2022/12/21 06:43:34;;;;;;;1.30;1.05;;;;;;;;;;5049699;28;20052;-87
2022/12/21 06:46:05;;;;;;;0.40;0.40;;;;;;;;;;5047873;28;20047;-87
2022/12/21 06:48:34;;;;;;;1.02;0.75;;;;;;;;;;5054261;28;20068;-88
2022/12/21 06:51:03;;;;;;;1.35;0.93;;;;;;;;;;5070482;28;20060;-88
2022/12/21 06:53:33;;;;;;;3.42;0.77;;;;;;;;;;5055847;28;20068;-88
2022/12/21 06:56:02;;;;;;;0.47;0.47;;;;;;;;;;5062256;28;20044;-87
2022/12/21 06:58:31;;;;;;;0.50;0.50;;;;;;;;;;5069885;28;20041;-88
2022/12/21 07:01:05;;;;;;;0.75;0.70;;;;;;;;;;5063330;28;20390;-87
2022/12/21 07:03:34;;;;;;;0.40;0.40;;;;;;;;;;5069163;28;20108;-88
2022/12/21 07:06:11;;;;;;;1.02;0.55;;;;;;;;;;5065699;28;20049;-87
2022/12/21 07:08:39;;;;;;;2.00;1.70;;;;;;;;;;5054034;28;20044;-88
2022/12/21 07:11:09;;;;;;;0.85;0.47;;;;;;;;;;5048013;28;20087;-87
2022/12/21 07:13:37;;;;;;;0.60;0.52;;;;;;;;;;5047502;28;20052;-88
2022/12/21 07:16:08;;;;;;;4.75;1.25;;;;;;;;;;5055765;28;20040;-87
2022/12/21 07:18:37;;;;;;;0.55;0.55;;;;;;;;;;5068080;28;20433;-88
2022/12/21 07:21:07;;;;;;;0.40;0.40;;;;;;;;;;5073465;28;20064;-87
2022/12/21 07:23:37;;;;;;;0.77;0.77;;;;;;;;;;5073853;28;20446;-88
2022/12/21 07:26:06;;;;;;;0.57;0.57;;;;;;;;;;5045001;28;20056;-87
2022/12/21 07:28:37;;;;;;;0.50;0.50;;;;;;;;;;5049600;28;20564;-87
2022/12/21 07:31:07;;;;;;;0.20;0.20;;;;;;;;;;5067792;28;20037;-87
2022/12/21 07:33:37;;;;;;;0.85;0.80;;;;;;;;;;5066659;28;20052;-87
2022/12/21 07:36:07;;;;;;;0.55;0.32;;;;;;;;;;5053938;28;20132;-87
2022/12/21 07:38:36;;;;;;;0.32;0.32;;;;;;;;;;5052482;28;20875;-87
2022/12/21 07:41:06;;;;;;;0.60;0.60;;;;;;;;;;5053603;28;20037;-87
2022/12/21 07:43:35;;;;;;;1.17;0.80;;;;;;;;;;5050331;28;20100;-88
2022/12/21 07:46:04;;;;;;;0.68;0.68;;;;;;;;;;5048311;28;20465;-89
2022/12/21 07:48:34;;;;;;;0.43;0.43;;;;;;;;;;5048775;28;20049;-88
2022/12/21 07:51:02;;;;;;;0.63;0.45;;;;;;;;;;5059655;28;20067;-87
2022/12/21 07:53:31;;;;;;;0.28;0.28;;;;;;;;;;5064202;28;20624;-88
2022/12/21 07:56:00;;;;;;;2.38;0.98;;;;;;;;;;5058368;28;20060;-88
2022/12/21 07:58:29;;;;;;;0.57;0.57;;;;;;;;;;5072163;28;20086;-88
2022/12/21 08:01:05;;;;;;;0.52;0.52;;;;;;;;;;5058768;28;20045;-88
2022/12/21 08:03:36;;;;;;;0.43;0.43;;;;;;;;;;5048870;28;20053;-88
2022/12/21 08:06:06;;;;;;;2.42;0.68;;;;;;;;;;5061263;28;20427;-88
2022/12/21 08:08:35;;;;;;;1.23;0.82;;;;;;;;;;5051334;28;20041;-87
2022/12/21 08:11:03;;;;;;;1.30;0.70;;;;;;;;;;5055270;28;20103;-88
2022/12/21 08:13:32;;;;;;;2.92;0.70;;;;;;;;;;5068636;28;20080;-88
2022/12/21 08:16:01;;;;;;;0.32;0.32;;;;;;;;;;5054584;28;20103;-87
2022/12/21 08:18:30;;;;;;;0.75;0.75;;;;;;;;;;5054912;28;20075;-88
2022/12/21 08:21:00;;;;;;;0.93;0.85;;;;;;;;;;5045081;28;20155;-87
2022/12/21 08:23:30;;;;;;;0.88;0.88;;;;;;;;;;5048353;28;20057;-87
2022/12/21 08:26:02;;;;;;;0.50;0.50;;;;;;;;;;5049042;28;20070;-87
2022/12/21 08:28:31;;;;;;;0.50;0.50;;;;;;;;;;5051053;28;20037;-87
2022/12/21 08:31:03;;;;;;;0.80;0.80;;;;;;;;;;5046670;28;20052;-88
2022/12/21 08:33:32;;;;;;;0.45;0.30;;;;;;;;;;5054091;28;20514;-88
2022/12/21 08:36:03;;;;;;;2.72;0.98;;;;;;;;;;5042814;28;20140;-87
2022/12/21 08:38:31;;;;;;;0.70;0.70;;;;;;;;;;5043578;28;20113;-88
2022/12/21 08:41:20;;;;;;;1.27;1.17;;;;;;;;;;5051703;28;20044;-88
2022/12/21 08:43:51;;;;;;;1.30;0.85;;;;;;;;;;5044881;28;20049;-88
2022/12/21 08:46:19;;;;;;;0.80;0.80;;;;;;;;;;5039302;28;20080;-88
2022/12/21 08:48:49;;;;;;;1.77;1.65;;;;;;;;;;5045257;28;20053;-88
2022/12/21 08:51:19;;;;;;;6.75;1.55;;;;;;;;;;5051742;28;20052;-88
2022/12/21 08:53:49;;;;;;;1.23;1.17;;;;;;;;;;5054104;28;20045;-89
2022/12/21 08:56:20;;;;;;;0.40;0.40;;;;;;;;;;5068415;28;20048;-89
2022/12/21 08:58:49;;;;;;;2.03;1.85;;;;;;;;;;5062436;28;20475;-88
2022/12/21 09:01:19;;;;;;;3.10;1.35;;;;;;;;;;5042418;28;20057;-88
2022/12/21 09:03:47;;;;;;;1.02;0.88;;;;;;;;;;5061475;28;20152;-88
2022/12/21 09:06:16;;;;;;;0.68;0.68;;;;;;;;;;5062463;28;20052;-88
2022/12/21 09:08:46;;;;;;;1.25;1.00;;;;;;;;;;5062042;28;20093;-88
2022/12/21 09:11:16;;;;;;;1.83;1.67;;;;;;;;;;5054283;28;20075;-89
2022/12/21 09:13:45;;;;;;;4.28;2.80;;;;;;;;;;5047215;28;20063;-88
2022/12/21 09:16:15;;;;;;;7.10;5.07;;;;;;;;;;5053184;28;20049;-88
2022/12/21 09:18:44;;;;;;;3.67;2.25;;;;;;;;;;5047950;28;20051;-89
2022/12/21 09:21:15;;;;;;;6.43;3.85;;;;;;;;;;5038699;28;20046;-88
2022/12/21 09:23:44;;;;;;;2.38;1.67;;;;;;;;;;5044566;28;20052;-88
2022/12/21 09:26:15;;;;;;;2.90;2.17;;;;;;;;;;5051048;28;20580;-88
2022/12/21 09:28:43;;;;;;;4.22;3.88;;;;;;;;;;5051051;28;20659;-88
2022/12/21 09:31:13;;;;;;;8.25;2.72;;;;;;;;;;5069025;28;20054;-88
2022/12/21 09:33:51;;;;;;;2.75;1.92;;;;;;;;;;5069019;28;20056;-89
2022/12/21 09:36:20;;;;;;;5.25;3.15;;;;;;;;;;5045575;28;20090;-88
2022/12/21 09:38:49;;;;;;;2.50;1.67;;;;;;;;;;5047444;28;20045;-91
2022/12/21 09:41:27;;;;;;;5.55;3.65;;;;;;;;;;5064907;28;20048;-89
2022/12/21 09:44:02;;;;;;;4.32;3.38;;;;;;;;;;5050488;28;20049;-88
2022/12/21 09:46:31;;;;;;;1.77;1.35;;;;;;;;;;5054168;28;20079;-87
2022/12/21 09:49:01;;;;;;;4.13;2.97;;;;;;;;;;5049725;28;20048;-89
2022/12/21 09:51:32;;;;;;;1.48;1.38;;;;;;;;;;5045647;28;20110;-89
2022/12/21 09:54:02;;;;;;;2.15;1.35;;;;;;;;;;5059573;28;20044;-89
2022/12/21 09:56:32;;;;;;;2.22;1.10;;;;;;;;;;5060248;28;20069;-89
2022/12/21 09:59:04;;;;;;;1.50;1.40;;;;;;;;;;5070821;28;20060;-89
2022/12/21 10:01:42;;;;;;;2.53;1.33;;;;;;;;;;5055979;28;20060;-89
2022/12/21 10:04:27;;;;;;;0.63;0.60;;;;;;;;;;5054687;28;20094;-88
2022/12/21 10:07:21;;;;;;;1.83;1.15;;;;;;;;;;5050258;28;20049;-88
2022/12/21 10:09:50;;;;;;;;;;;;;;;;;;5062599;28;20163;-88
2022/12/21 10:12:25;;;;;;;0.20;0.20;;;;;;;;;;5052171;28;20356;-90
2022/12/21 10:14:59;;;;;;;0.95;0.88;;;;;;;;;;5045848;28;20068;-89
2022/12/21 10:17:34;;;;;;;0.75;0.75;;;;;;;;;;5059906;28;20136;-89
2022/12/21 10:20:17;;;;;;;0.85;0.68;;;;;;;;;;5047447;28;20216;-90
2022/12/21 10:22:47;;;;;;;0.50;0.50;;;;;;;;;;5046541;28;20396;-89
2022/12/21 10:25:18;;;;;;;0.50;0.50;;;;;;;;;;5053875;28;20049;-89
2022/12/21 10:27:49;;;;;;;0.17;0.17;;;;;;;;;;5068536;28;20057;-89
2022/12/21 10:30:18;;;;;;;0.95;0.47;;;;;;;;;;5048765;28;20045;-89
2022/12/21 10:32:49;;;;;;;0.20;0.20;;;;;;;;;;5056557;28;20077;-89
2022/12/21 10:35:19;;;;;;;0.98;0.70;;;;;;;;;;5045737;28;20137;-88
2022/12/21 10:37:50;;;;;;;1.08;0.75;;;;;;;;;;5050750;28;20132;-89
2022/12/21 10:40:19;;;;;;;0.40;0.40;;;;;;;;;;5058791;28;20198;-89
2022/12/21 10:42:50;;;;;;;0.77;0.77;;;;;;;;;;5051980;28;20476;-88
2022/12/21 10:45:20;;;;;;;0.88;0.65;;;;;;;;;;5049726;28;20110;-90
2022/12/21 10:47:53;;;;;;;;;;;;;;;;;;5064565;28;20373;-89
2022/12/21 10:50:25;;;;;;;0.15;0.15;;;;;;;;;;5052222;28;19932;-90
2022/12/21 10:52:54;;;;;;;0.40;0.40;;;;;;;;;;5048712;28;20073;-89
2022/12/21 10:55:30;;;;;;;0.28;0.28;;;;;;;;;;5075153;28;20053;-88
2022/12/21 10:58:05;;;;;;;1.27;0.55;;;;;;;;;;5060155;28;20596;-89
2022/12/21 11:00:35;;;;;;;0.93;0.93;;;;;;;;;;5041295;28;20144;-88
2022/12/21 11:03:05;;;;;;;1.00;0.45;;;;;;;;;;5032104;28;20053;-89
2022/12/21 11:05:35;;;;;;;0.75;0.75;;;;;;;;;;5038140;28;20603;-90
2022/12/21 11:08:17;;;;;;;0.77;0.60;;;;;;;;;;5049623;28;20053;-89
2022/12/21 11:10:47;;;;;;;1.08;0.98;;;;;;;;;;5025180;28;20396;-89
2022/12/21 11:13:24;;;;;;;0.95;0.68;;;;;;;;;;5030350;28;20100;-89
2022/12/21 11:15:54;;;;;;;1.08;0.65;;;;;;;;;;5047919;28;20057;-89
2022/12/21 11:18:36;;;;;;;1.92;0.68;;;;;;;;;;5051974;28;20045;-87
2022/12/21 11:21:05;;;;;;;1.55;0.57;;;;;;;;;;5066883;28;20473;-90
2022/12/21 11:23:34;;;;;;;0.55;0.28;;;;;;;;;;5052838;28;20132;-89
2022/12/21 11:26:02;;;;;;;0.82;0.35;;;;;;;;;;5065681;28;20048;-89
2022/12/21 11:28:32;;;;;;;0.40;0.40;;;;;;;;;;5043332;28;20426;-89
2022/12/21 11:31:04;;;;;;;1.15;0.50;;;;;;;;;;5060791;28;20049;-88
2022/12/21 11:33:34;;;;;;;1.13;0.55;;;;;;;;;;5061681;28;20056;-88
2022/12/21 11:36:06;;;;;;;2.40;0.65;;;;;;;;;;5064146;28;20144;-88
2022/12/21 11:38:36;;;;;;;1.77;1.33;;;;;;;;;;5063244;28;20457;-89
2022/12/21 11:41:09;;;;;;;4.38;1.20;;;;;;;;;;5059222;28;20052;-89
2022/12/21 11:43:46;;;;;;;1.67;1.38;;;;;;;;;;5051691;28;20118;-89
2022/12/21 11:46:19;;;;;;;4.95;2.13;;;;;;;;;;5054542;28;20124;-89
2022/12/21 11:49:17;;;;;;;2.80;1.83;;;;;;;;;;5060282;28;20041;-89
2022/12/21 11:51:50;;;;;;;1.60;1.17;;;;;;;;;;5047639;28;20044;-89
2022/12/21 11:54:31;;;;;;;4.65;2.10;;;;;;;;;;5069553;28;20198;-90
2022/12/21 11:57:03;;;;;;;1.85;1.60;;;;;;;;;;5058603;28;20059;-90
2022/12/21 11:59:40;;;;;;;2.75;1.70;;;;;;;;;;5050962;28;20048;-89
2022/12/21 12:02:20;;;;;;;3.10;1.92;;;;;;;;;;5051737;28;20144;-89
2022/12/21 12:04:57;;;;;;;4.43;1.50;;;;;;;;;;5047476;28;20133;-90
2022/12/21 12:07:36;;;;;;;0.70;0.55;;;;;;;;;;5057100;28;20103;-90
2022/12/21 12:10:15;;;;;;;0.60;0.60;;;;;;;;;;5066978;28;20041;-89
2022/12/21 12:12:48;;;;;;;1.30;0.88;;;;;;;;;;5059798;28;20099;-91
2022/12/21 12:15:31;;;;;;;0.30;0.30;;;;;;;;;;5051598;28;20045;-89
2022/12/21 12:18:08;;;;;;;0.43;0.43;;;;;;;;;;5056696;28;20049;-90
2022/12/21 12:20:47;;;;;;;1.95;0.73;;;;;;;;;;5015171;28;20049;-90
2022/12/21 12:23:20;;;;;;;0.20;0.20;;;;;;;;;;5062154;28;20044;-90
2022/12/21 12:25:56;;;;;;;0.45;0.45;;;;;;;;;;5063774;28;20056;-90
2022/12/21 12:28:34;;;;;;;1.95;0.70;;;;;;;;;;5055544;28;20135;-90
2022/12/21 12:31:11;;;;;;;2.00;1.50;;;;;;;;;;5054628;28;20072;-90
2022/12/21 12:33:46;;;;;;;0.40;0.40;;;;;;;;;;5048977;28;20052;-90
2022/12/21 12:36:20;;;;;;;1.08;1.08;;;;;;;;;;5048709;28;20056;-90
2022/12/21 12:38:54;;;;;;;0.43;0.43;;;;;;;;;;5070664;28;20048;-89
2022/12/21 12:41:33;;;;;;;1.13;0.50;;;;;;;;;;5051114;28;20536;-90
2022/12/21 12:44:03;;;;;;;0.75;0.75;;;;;;;;;;5060670;28;21373;-90
2022/12/21 12:46:47;;;;;;;1.52;1.13;;;;;;;;;;5053454;28;20159;-91
2022/12/21 12:49:25;;;;;;;1.20;0.70;;;;;;;;;;5056790;28;20040;-89
2022/12/21 12:51:58;;;;;;;1.13;0.95;;;;;;;;;;5049253;28;20041;-89
2022/12/21 12:54:31;;;;;;;0.82;0.68;;;;;;;;;;5050795;28;20044;-90
2022/12/21 12:57:05;;;;;;;1.20;0.98;;;;;;;;;;5057985;28;20040;-90
2022/12/21 12:59:38;;;;;;;0.45;0.45;;;;;;;;;;5056251;28;20077;-91
2022/12/21 13:02:10;;;;;;;1.23;1.13;;;;;;;;;;5043810;28;20473;-91
2022/12/21 13:04:45;;;;;;;1.60;0.80;;;;;;;;;;5049640;28;20049;-92
2022/12/21 13:07:17;;;;;;;3.17;0.75;;;;;;;;;;5051772;28;20067;-91
2022/12/21 13:09:50;;;;;;;0.85;0.60;;;;;;;;;;5043134;28;20048;-90
2022/12/21 13:12:22;;;;;;;0.80;0.80;;;;;;;;;;5050960;28;20048;-91
2022/12/21 13:14:53;;;;;;;0.45;0.45;;;;;;;;;;5049430;28;20099;-93
2022/12/21 13:17:27;;;;;;;0.47;0.35;;;;;;;;;;5046272;28;20056;-91
2022/12/21 13:19:59;;;;;;;0.73;0.60;;;;;;;;;;5051752;28;20044;-91
2022/12/21 13:22:30;;;;;;;0.52;0.40;;;;;;;;;;5065457;28;20061;-92
2022/12/21 13:25:00;;;;;;;0.70;0.63;;;;;;;;;;5041962;28;20465;-90
2022/12/21 13:27:30;;;;;;;1.10;0.95;;;;;;;;;;5055961;28;20044;-92
2022/12/21 13:30:02;;;;;;;0.38;0.38;;;;;;;;;;5048726;28;20552;-90
2022/12/21 13:32:37;;;;;;;0.82;0.65;;;;;;;;;;5022400;28;20049;-92
2022/12/21 13:35:15;;;;;;;0.35;0.35;;;;;;;;;;5042963;28;20129;-92
2022/12/21 13:37:44;;;;;;;0.30;0.30;;;;;;;;;;5045317;28;20057;-93
2022/12/21 13:40:16;;;;;;;2.17;0.60;;;;;;;;;;5054399;28;20049;-91
2022/12/21 13:42:47;;;;;;;1.25;0.88;;;;;;;;;;5050273;28;20115;-93
2022/12/21 13:45:18;;;;;;;0.22;0.22;;;;;;;;;;5044357;28;20516;-94
2022/12/21 13:47:50;;;;;;;0.32;0.32;;;;;;;;;;5045299;28;20080;-93
2022/12/21 13:50:23;;;;;;;0.30;0.30;;;;;;;;;;5043982;28;20067;-91
2022/12/21 13:52:53;;;;;;;2.40;0.70;;;;;;;;;;5047855;28;20644;-92
2022/12/21 13:55:33;;;;;;;2.15;0.30;;;;;;;;;;5042167;28;20265;-93
2022/12/21 13:58:07;;;;;;;0.35;0.35;;;;;;;;;;5045239;28;20426;-92
2022/12/21 14:00:40;;;;;;;0.50;0.50;;;;;;;;;;5027681;28;20057;-92
2022/12/21 14:03:20;;;;;;;0.30;0.30;;;;;;;;;;5044831;28;20064;-91
2022/12/21 14:05:54;;;;;;;1.67;1.33;;;;;;;;;;5042496;28;20049;-92
2022/12/21 14:08:41;;;;;;;1.58;0.15;;;;;;;;;;5048006;28;20052;-92
2022/12/21 14:11:32;;;;;;;0.82;0.40;;;;;;;;;;5044541;28;20056;-92
2022/12/21 14:14:21;;;;;;;1.40;0.60;;;;;;;;;;5040002;28;20301;-93
2022/12/21 14:17:00;;;;;;;1.67;0.60;;;;;;;;;;5036727;28;20072;-91
2022/12/21 14:19:33;;;;;;;0.73;0.73;;;;;;;;;;5045724;28;20108;-92
2022/12/21 14:22:04;;;;;;;0.40;0.40;;;;;;;;;;5044449;28;20096;-93
2022/12/21 14:24:34;;;;;;;1.35;0.63;;;;;;;;;;5043480;28;20103;-94
2022/12/21 14:27:08;;;;;;;;;;;;;;;;;;5052694;28;20055;-92
2022/12/21 14:29:40;;;;;;;0.55;0.45;;;;;;;;;;5044861;28;20011;-93
2022/12/21 14:32:17;;;;;;;1.05;0.68;;;;;;;;;;5040536;28;20457;-92
2022/12/21 14:34:50;;;;;;;4.95;1.95;;;;;;;;;;5048344;28;20476;-92
2022/12/21 14:37:28;;;;;;;1.00;0.88;;;;;;;;;;5045579;28;20052;-92
2022/12/21 14:40:23;;;;;;;0.85;0.43;;;;;;;;;;5044509;28;20048;-92
2022/12/21 14:42:57;;;;;;;2.45;0.55;;;;;;;;;;5046588;28;20084;-92
2022/12/21 14:45:27;;;;;;;0.57;0.30;;;;;;;;;;5040536;28;20507;-92
2022/12/21 14:48:01;;;;;;;0.68;0.68;;;;;;;;;;5043905;28;20478;-92
2022/12/21 14:50:48;;;;;;;0.32;0.32;;;;;;;;;;5047017;28;20056;-90
2022/12/21 14:53:32;;;;;;;0.77;0.52;;;;;;;;;;5045944;28;20111;-92
2022/12/21 14:56:05;;;;;;;0.93;0.73;;;;;;;;;;5042167;28;20247;-91
2022/12/21 14:58:35;;;;;;;0.30;0.30;;;;;;;;;;5028410;28;20053;-89
2022/12/21 15:01:23;;;;;;;0.47;0.43;;;;;;;;;;5044278;28;20167;-90
2022/12/21 15:03:56;;;;;;;1.08;1.05;;;;;;;;;;5047054;28;20053;-90
2022/12/21 15:06:27;;;;;;;0.43;0.43;;;;;;;;;;5046261;28;20606;-89
2022/12/21 15:09:15;;;;;;;0.38;0.38;;;;;;;;;;5056202;28;20269;-90
2022/12/21 15:11:49;;;;;;;1.90;0.90;;;;;;;;;;5044698;28;20080;-91
2022/12/21 15:14:24;;;;;;;1.00;0.85;;;;;;;;;;5049485;28;20104;-91
2022/12/21 15:16:53;;;;;;;0.47;0.45;;;;;;;;;;5050945;28;20153;-92
2022/12/21 15:19:49;;;;;;;0.70;0.70;;;;;;;;;;5056743;28;20075;-92
2022/12/21 15:22:28;;;;;;;0.25;0.25;;;;;;;;;;5059582;28;20482;-91
2022/12/21 15:24:59;;;;;;;0.25;0.25;;;;;;;;;;5050750;28;20048;-91
2022/12/21 15:27:34;;;;;;;0.73;0.32;;;;;;;;;;5040597;28;20045;-91
2022/12/21 15:30:04;;;;;;;0.45;0.45;;;;;;;;;;5052845;28;20135;-92